createdAt,value
2023-03-20T00:01:38.295Z,7.10
2023-03-20T00:04:04.892Z,6.59
2023-03-20T00:06:32.341Z,6.67
2023-03-20T00:08:58.796Z,7.13
2023-03-20T00:11:34.775Z,7.07
2023-03-20T00:14:02.991Z,6.83
2023-03-20T00:16:40.335Z,6.80
2023-03-20T00:19:08.606Z,6.79
2023-03-20T00:21:35.176Z,6.86
2023-03-20T00:24:01.904Z,6.75
2023-03-20T00:26:33.562Z,6.97
2023-03-20T00:29:01.196Z,7.12
2023-03-20T00:31:30.820Z,7.06
2023-03-20T00:33:58.610Z,7.26
2023-03-20T00:36:25.457Z,7.04
2023-03-20T00:38:52.177Z,7.20
2023-03-20T00:41:21.865Z,7.46
2023-03-20T00:43:49.676Z,7.24
2023-03-20T00:46:16.387Z,7.21
2023-03-20T00:48:43.604Z,7.29
2023-03-20T00:51:10.032Z,7.23
2023-03-20T00:53:37.100Z,6.97
2023-03-20T00:56:03.849Z,7.00
2023-03-20T00:58:30.342Z,6.89
2023-03-20T01:00:57.151Z,7.02
2023-03-20T01:03:26.066Z,7.10
2023-03-20T01:05:52.700Z,6.90
2023-03-20T01:08:23.800Z,6.82
2023-03-20T01:10:51.456Z,6.99
2023-03-20T01:13:21.362Z,7.02
2023-03-20T01:15:48.280Z,7.02
2023-03-20T01:18:15.963Z,6.95
2023-03-20T01:20:42.903Z,6.94
2023-03-20T01:23:10.017Z,6.87
2023-03-20T01:25:36.942Z,6.64
2023-03-20T01:28:07.501Z,6.42
2023-03-20T01:30:34.269Z,6.69
2023-03-20T01:33:01.640Z,6.84
2023-03-20T01:35:29.649Z,6.80
2023-03-20T01:38:00.807Z,6.83
2023-03-20T01:40:32.105Z,7.08
2023-03-20T01:42:59.019Z,7.04
2023-03-20T01:45:30.216Z,6.94
2023-03-20T01:47:58.918Z,7.12
2023-03-20T01:50:27.132Z,7.11
2023-03-20T01:53:04.615Z,7.10
2023-03-20T01:55:32.668Z,7.09
2023-03-20T01:58:05.209Z,6.97
2023-03-20T02:00:33.125Z,6.97
2023-03-20T02:03:00.415Z,6.80
2023-03-20T02:06:01.892Z,6.65
2023-03-20T02:08:52.895Z,6.60
2023-03-20T02:11:22.501Z,6.56
2023-03-20T02:13:51.007Z,6.50
2023-03-20T02:16:18.167Z,6.55
2023-03-20T02:18:58.379Z,6.66
2023-03-20T02:21:31.160Z,6.68
2023-03-20T02:24:04.717Z,6.57
2023-03-20T02:26:48.038Z,6.72
2023-03-20T02:29:14.617Z,6.52
2023-03-20T02:31:41.162Z,6.29
2023-03-20T02:34:26.602Z,6.18
2023-03-20T02:36:53.187Z,6.27
2023-03-20T02:39:34.998Z,6.48
2023-03-20T02:42:14.255Z,6.67
2023-03-20T02:45:04.589Z,6.35
2023-03-20T02:47:34.871Z,6.36
2023-03-20T02:50:18.141Z,6.30
2023-03-20T02:52:47.756Z,6.16
2023-03-20T02:55:14.509Z,6.35
2023-03-20T02:57:56.443Z,6.31
2023-03-20T03:00:38.464Z,6.49
2023-03-20T03:03:06.581Z,6.66
2023-03-20T03:05:49.769Z,6.62
2023-03-20T03:08:18.529Z,6.88
2023-03-20T03:10:46.976Z,6.91
2023-03-20T03:13:15.383Z,7.07
2023-03-20T03:15:45.306Z,7.20
2023-03-20T03:18:14.413Z,7.15
2023-03-20T03:20:43.124Z,7.10
2023-03-20T03:23:14.873Z,6.91
2023-03-20T03:25:41.997Z,6.98
2023-03-20T03:28:21.602Z,7.02
2023-03-20T03:30:50.117Z,7.00
2023-03-20T03:33:21.340Z,6.97
2023-03-20T03:35:49.859Z,7.08
2023-03-20T03:38:29.046Z,8.13
2023-03-20T03:41:23.867Z,7.60
2023-03-20T03:43:53.967Z,7.49
2023-03-20T03:46:26.820Z,7.38
2023-03-20T03:48:56.178Z,7.20
2023-03-20T03:51:25.083Z,7.28
2023-03-20T03:54:04.081Z,7.16
2023-03-20T03:56:31.677Z,7.09
2023-03-20T03:59:04.297Z,7.41
2023-03-20T04:01:35.456Z,7.55
2023-03-20T04:04:05.046Z,7.35
2023-03-20T04:06:32.227Z,7.34
2023-03-20T04:08:58.859Z,7.48
2023-03-20T04:11:26.198Z,7.49
2023-03-20T04:13:52.882Z,7.42
2023-03-20T04:16:22.960Z,7.37
2023-03-20T04:18:50.530Z,7.15
2023-03-20T04:21:17.989Z,7.40
2023-03-20T04:23:44.515Z,7.60
2023-03-20T04:26:11.309Z,7.67
2023-03-20T04:28:38.509Z,7.64
2023-03-20T04:31:25.211Z,7.60
2023-03-20T04:34:10.768Z,7.48
2023-03-20T04:36:52.459Z,7.57
2023-03-20T04:39:20.491Z,7.46
2023-03-20T04:41:47.305Z,7.30
2023-03-20T04:44:13.933Z,7.31
2023-03-20T04:46:43.183Z,7.34
2023-03-20T04:49:14.986Z,7.43
2023-03-20T04:51:41.954Z,7.61
2023-03-20T04:54:10.834Z,7.74
2023-03-20T04:56:37.375Z,7.82
2023-03-20T04:59:14.072Z,7.77
2023-03-20T05:01:40.813Z,7.76
2023-03-20T05:04:08.062Z,7.86
2023-03-20T05:06:35.187Z,7.68
2023-03-20T05:09:02.146Z,7.56
2023-03-20T05:11:30.622Z,7.71
2023-03-20T05:13:59.816Z,7.78
2023-03-20T05:16:37.782Z,7.72
2023-03-20T05:19:18.896Z,7.47
2023-03-20T05:21:48.328Z,7.68
2023-03-20T05:24:35.244Z,7.68
2023-03-20T05:27:27.880Z,7.72
2023-03-20T05:30:23.356Z,7.60
2023-03-20T05:33:08.602Z,7.68
2023-03-20T05:35:52.544Z,7.82
2023-03-20T05:38:32.819Z,7.92
2023-03-20T05:41:22.718Z,7.81
2023-03-20T05:44:11.145Z,8.00
2023-03-20T05:46:56.600Z,8.05
2023-03-20T05:49:41.841Z,8.06
2023-03-20T05:52:26.788Z,7.95
2023-03-20T05:55:28.392Z,7.87
2023-03-20T05:58:12.154Z,8.17
2023-03-20T06:00:58.004Z,8.09
2023-03-20T06:03:44.770Z,8.33
2023-03-20T06:06:20.084Z,8.16
2023-03-20T06:08:49.203Z,8.37
2023-03-20T06:11:16.400Z,8.52
2023-03-20T06:13:43.313Z,8.51
2023-03-20T06:16:11.051Z,8.60
2023-03-20T06:18:39.172Z,8.68
2023-03-20T06:21:07.726Z,8.81
2023-03-20T06:23:34.306Z,8.83
2023-03-20T06:26:02.161Z,8.84
2023-03-20T06:28:32.391Z,9.04
2023-03-20T06:31:04.698Z,9.10
2023-03-20T06:33:31.380Z,9.22
2023-03-20T06:35:59.713Z,9.45
2023-03-20T06:38:28.826Z,9.15
2023-03-20T06:40:55.544Z,9.77
2023-03-20T06:43:22.809Z,10.08
2023-03-20T06:45:52.297Z,10.49
2023-03-20T06:48:24.770Z,11.16
2023-03-20T06:50:52.831Z,11.76
2023-03-20T06:53:22.340Z,11.63
2023-03-20T06:56:01.725Z,11.18
2023-03-20T06:58:28.814Z,11.12
2023-03-20T07:00:55.355Z,10.92
2023-03-20T07:03:22.372Z,10.97
2023-03-20T07:05:50.943Z,11.09
2023-03-20T07:08:18.517Z,11.09
2023-03-20T07:10:45.040Z,10.58
2023-03-20T07:13:12.882Z,11.04
2023-03-20T07:15:50.648Z,11.10
2023-03-20T07:18:25.546Z,11.17
2023-03-20T07:20:52.921Z,11.28
2023-03-20T07:23:20.048Z,11.30
2023-03-20T07:25:47.445Z,11.45
2023-03-20T07:28:17.003Z,11.29
2023-03-20T07:30:49.823Z,11.28
2023-03-20T07:33:18.098Z,11.30
2023-03-20T07:35:45.309Z,11.23
2023-03-20T07:38:12.030Z,11.45
2023-03-20T07:40:49.082Z,11.26
2023-03-20T07:43:16.705Z,11.38
2023-03-20T07:46:02.230Z,11.34
2023-03-20T07:48:28.749Z,11.45
2023-03-20T07:50:55.433Z,11.48
2023-03-20T07:53:22.058Z,11.47
2023-03-20T07:55:48.897Z,11.50
2023-03-20T07:58:15.598Z,11.31
2023-03-20T08:00:42.225Z,11.11
2023-03-20T08:03:09.450Z,11.55
2023-03-20T08:05:36.346Z,11.86
2023-03-20T08:08:03.275Z,11.53
2023-03-20T08:10:29.772Z,11.95
2023-03-20T08:12:56.333Z,12.72
2023-03-20T08:15:22.821Z,13.08
2023-03-20T08:17:49.325Z,13.25
2023-03-20T08:20:16.376Z,13.83
2023-03-20T08:22:44.259Z,12.98
2023-03-20T08:25:11.005Z,13.51
2023-03-20T08:27:38.510Z,14.23
2023-03-20T08:30:05.225Z,14.62
2023-03-20T08:32:31.984Z,14.03
2023-03-20T08:34:58.488Z,14.40
2023-03-20T08:37:24.980Z,14.34
2023-03-20T08:39:51.521Z,15.10
2023-03-20T08:42:17.995Z,15.29
2023-03-20T08:44:45.160Z,14.80
2023-03-20T08:47:12.225Z,14.81
2023-03-20T08:49:38.724Z,15.15
2023-03-20T08:52:05.828Z,15.58
2023-03-20T08:54:33.779Z,15.77
2023-03-20T08:57:00.266Z,15.76
2023-03-20T08:59:26.754Z,15.71
2023-03-20T09:01:53.247Z,16.18
2023-03-20T09:04:19.746Z,15.94
2023-03-20T09:06:46.311Z,16.45
2023-03-20T09:09:15.791Z,16.09
2023-03-20T09:11:42.359Z,16.06
2023-03-20T09:14:08.974Z,16.25
2023-03-20T09:16:35.511Z,16.55
2023-03-20T09:19:02.072Z,16.83
2023-03-20T09:21:28.550Z,16.38
2023-03-20T09:23:54.981Z,16.73
2023-03-20T09:26:21.537Z,16.88
2023-03-20T09:28:48.024Z,17.00
2023-03-20T09:31:14.594Z,16.98
2023-03-20T09:33:41.248Z,16.80
2023-03-20T09:36:11.504Z,17.48
2023-03-20T09:38:38.155Z,17.78
2023-03-20T09:41:05.114Z,17.62
2023-03-20T09:43:50.520Z,17.73
2023-03-20T09:46:31.720Z,18.77
2023-03-20T09:48:58.174Z,18.28
2023-03-20T09:51:31.898Z,18.85
2023-03-20T09:54:07.782Z,19.00
2023-03-20T09:56:34.236Z,19.40
2023-03-20T09:59:02.212Z,20.19
2023-03-20T10:01:51.996Z,20.23
2023-03-20T10:04:19.128Z,18.57
2023-03-20T10:06:46.641Z,18.97
2023-03-20T10:09:24.776Z,19.51
2023-03-20T10:11:57.386Z,19.16
2023-03-20T10:14:37.395Z,18.70
2023-03-20T10:17:19.015Z,18.85
2023-03-20T10:19:45.550Z,19.38
2023-03-20T10:22:11.983Z,18.96
2023-03-20T10:24:49.175Z,19.21
2023-03-20T10:27:28.229Z,19.10
2023-03-20T10:30:03.579Z,18.58
2023-03-20T10:32:36.257Z,18.21
2023-03-20T10:35:08.944Z,18.37
2023-03-20T10:37:53.054Z,18.49
2023-03-20T10:40:26.811Z,18.10
2023-03-20T10:42:55.050Z,17.83
2023-03-20T10:45:28.290Z,17.46
2023-03-20T10:47:56.061Z,17.62
2023-03-20T10:50:32.023Z,17.96
2023-03-20T10:53:00.190Z,17.85
2023-03-20T10:55:30.848Z,17.91
2023-03-20T10:58:14.192Z,18.06
2023-03-20T11:00:40.895Z,18.14
2023-03-20T11:03:08.217Z,18.05
2023-03-20T11:05:36.959Z,17.70
2023-03-20T11:08:07.757Z,17.47
2023-03-20T11:10:36.296Z,17.30
2023-03-20T11:13:16.933Z,17.09
2023-03-20T11:15:43.463Z,16.93
2023-03-20T11:18:14.090Z,17.01
2023-03-20T11:20:50.510Z,16.65
2023-03-20T11:23:19.529Z,16.63
2023-03-20T11:25:49.127Z,16.91
2023-03-20T11:28:26.367Z,17.06
2023-03-20T11:31:04.637Z,16.42
2023-03-20T11:33:32.492Z,16.74
2023-03-20T11:35:59.378Z,16.72
2023-03-20T11:38:25.996Z,16.34
2023-03-20T11:40:53.695Z,16.57
2023-03-20T11:43:21.892Z,16.63
2023-03-20T11:45:50.919Z,16.11
2023-03-20T11:48:24.999Z,16.29
2023-03-20T11:50:54.437Z,16.15
2023-03-20T11:53:23.260Z,16.23
2023-03-20T11:56:10.950Z,16.58
2023-03-20T11:58:40.130Z,16.43
2023-03-20T12:01:09.069Z,16.34
2023-03-20T12:03:45.121Z,16.33
2023-03-20T12:06:35.014Z,16.16
2023-03-20T12:09:04.496Z,16.18
2023-03-20T12:11:52.558Z,16.08
2023-03-20T12:14:23.831Z,16.02
2023-03-20T12:16:53.175Z,16.18
2023-03-20T12:19:25.921Z,16.17
2023-03-20T12:21:59.580Z,16.11
2023-03-20T12:24:44.510Z,16.30
2023-03-20T12:27:21.502Z,16.50
2023-03-20T12:29:55.859Z,16.70
2023-03-20T12:32:22.404Z,16.62
2023-03-20T12:35:02.446Z,16.74
2023-03-20T12:37:28.966Z,17.04
2023-03-20T12:39:57.095Z,16.76
2023-03-20T12:42:42.772Z,16.80
2023-03-20T12:45:16.031Z,16.57
2023-03-20T12:47:42.724Z,16.52
2023-03-20T12:50:18.439Z,16.80
2023-03-20T12:52:48.099Z,16.58
2023-03-20T12:55:26.166Z,16.47
2023-03-20T12:58:06.245Z,16.72
2023-03-20T13:00:36.039Z,17.33
2023-03-20T13:03:22.963Z,17.06
2023-03-20T13:05:52.221Z,16.95
2023-03-20T13:08:32.489Z,17.07
2023-03-20T13:11:15.967Z,17.07
2023-03-20T13:13:52.071Z,17.67
2023-03-20T13:16:31.622Z,17.17
2023-03-20T13:19:13.644Z,17.13
2023-03-20T13:21:40.236Z,17.28
2023-03-20T13:24:06.848Z,17.39
2023-03-20T13:26:38.896Z,17.51
2023-03-20T13:29:41.011Z,17.49
2023-03-20T13:32:10.441Z,17.28
2023-03-20T13:35:06.445Z,17.21
2023-03-20T13:37:36.073Z,17.25
2023-03-20T13:40:06.161Z,17.14
2023-03-20T13:42:36.948Z,17.60
2023-03-20T13:45:07.129Z,17.53
2023-03-20T13:47:36.209Z,17.66
2023-03-20T13:50:02.629Z,17.82
2023-03-20T13:52:32.166Z,17.99
2023-03-20T13:55:17.140Z,17.80
2023-03-20T13:57:50.233Z,18.13
2023-03-20T14:00:22.979Z,18.65
2023-03-20T14:02:52.683Z,18.27
2023-03-20T14:05:22.981Z,18.43
2023-03-20T14:07:55.825Z,18.76
2023-03-20T14:10:22.418Z,18.89
2023-03-20T14:12:50.249Z,18.91
2023-03-20T14:15:19.648Z,19.41
2023-03-20T14:17:50.975Z,18.55
2023-03-20T14:20:27.857Z,18.59
2023-03-20T14:22:56.934Z,18.92
2023-03-20T14:25:24.630Z,18.72
2023-03-20T14:28:06.699Z,18.77
2023-03-20T14:30:36.558Z,18.43
2023-03-20T14:33:15.976Z,18.36
2023-03-20T14:35:45.271Z,18.28
2023-03-20T14:38:20.429Z,18.60
2023-03-20T14:40:52.366Z,18.18
2023-03-20T14:43:37.597Z,18.55
2023-03-20T14:46:09.074Z,18.51
2023-03-20T14:48:41.685Z,18.75
2023-03-20T14:51:08.201Z,18.47
2023-03-20T14:53:34.936Z,18.14
2023-03-20T14:56:02.098Z,18.11
2023-03-20T14:58:41.469Z,17.80
2023-03-20T15:01:09.603Z,17.61
2023-03-20T15:03:39.519Z,17.42
2023-03-20T15:06:07.596Z,17.54
2023-03-20T15:08:36.074Z,17.57
2023-03-20T15:11:06.901Z,17.52
2023-03-20T15:13:34.196Z,18.42
2023-03-20T15:16:11.449Z,18.46
2023-03-20T15:18:43.088Z,19.13
2023-03-20T15:21:32.694Z,19.57
2023-03-20T15:23:59.262Z,19.16
2023-03-20T15:26:26.681Z,19.05
2023-03-20T15:28:59.680Z,18.32
2023-03-20T15:31:32.679Z,18.13
2023-03-20T15:34:00.666Z,17.90
2023-03-20T15:36:28.697Z,17.71
2023-03-20T15:39:03.986Z,17.45
2023-03-20T15:41:34.004Z,17.41
2023-03-20T15:44:15.906Z,17.23
2023-03-20T15:46:50.783Z,17.21
2023-03-20T15:49:18.507Z,17.57
2023-03-20T15:51:45.078Z,17.54
2023-03-20T15:54:13.977Z,17.61
2023-03-20T15:56:45.531Z,17.42
2023-03-20T15:59:14.589Z,17.29
2023-03-20T16:01:41.213Z,17.08
2023-03-20T16:04:09.953Z,16.68
2023-03-20T16:06:44.590Z,16.76
2023-03-20T16:09:14.054Z,16.75
2023-03-20T16:11:42.650Z,16.42
2023-03-20T16:14:14.707Z,16.40
2023-03-20T16:16:41.442Z,16.19
2023-03-20T16:19:08.360Z,15.99
2023-03-20T16:21:36.937Z,15.88
2023-03-20T16:24:06.977Z,15.83
2023-03-20T16:26:36.609Z,15.76
2023-03-20T16:29:03.648Z,15.48
2023-03-20T16:31:34.243Z,15.36
2023-03-20T16:34:02.667Z,15.35
2023-03-20T16:36:31.068Z,15.33
2023-03-20T16:38:59.085Z,15.35
2023-03-20T16:41:29.500Z,15.13
2023-03-20T16:43:56.962Z,15.11
2023-03-20T16:46:25.020Z,15.06
2023-03-20T16:48:52.463Z,14.82
2023-03-20T16:51:24.463Z,14.71
2023-03-20T16:53:53.992Z,14.64
2023-03-20T16:56:24.194Z,14.59
2023-03-20T16:58:50.835Z,14.53
2023-03-20T17:01:22.191Z,14.31
2023-03-20T17:03:48.714Z,14.39
2023-03-20T17:06:25.549Z,14.22
2023-03-20T17:08:53.706Z,14.13
2023-03-20T17:11:34.239Z,13.75
2023-03-20T17:14:01.230Z,13.55
2023-03-20T17:16:27.679Z,13.91
2023-03-20T17:19:01.730Z,13.95
2023-03-20T17:21:28.497Z,14.02
2023-03-20T17:23:55.058Z,13.90
2023-03-20T17:26:21.629Z,13.74
2023-03-20T17:28:48.116Z,13.66
2023-03-20T17:31:15.453Z,13.67
2023-03-20T17:33:41.935Z,13.70
2023-03-20T17:36:16.705Z,13.65
2023-03-20T17:38:43.146Z,13.54
2023-03-20T17:41:17.351Z,13.50
2023-03-20T17:43:44.435Z,13.59
2023-03-20T17:46:20.978Z,13.70
2023-03-20T17:48:48.360Z,13.82
2023-03-20T17:51:14.871Z,13.49
2023-03-20T17:53:41.383Z,13.38
2023-03-20T17:56:11.656Z,13.36
2023-03-20T17:58:39.312Z,13.38
2023-03-20T18:01:06.973Z,13.45
2023-03-20T18:03:33.510Z,14.00
2023-03-20T18:06:00.044Z,14.19
2023-03-20T18:08:26.644Z,14.10
2023-03-20T18:10:53.443Z,13.70
2023-03-20T18:13:21.195Z,13.70
2023-03-20T18:15:49.528Z,13.57
2023-03-20T18:18:16.205Z,13.52
2023-03-20T18:20:43.000Z,13.37
2023-03-20T18:23:09.972Z,13.38
2023-03-20T18:25:36.465Z,13.29
2023-03-20T18:28:04.753Z,13.30
2023-03-20T18:30:36.561Z,13.23
2023-03-20T18:33:03.975Z,13.23
2023-03-20T18:35:30.719Z,13.19
2023-03-20T18:37:57.328Z,13.23
2023-03-20T18:40:27.709Z,13.24
2023-03-20T18:42:54.873Z,13.13
2023-03-20T18:45:22.096Z,13.05
2023-03-20T18:47:49.190Z,13.12
2023-03-20T18:50:21.795Z,12.89
2023-03-20T18:52:48.358Z,12.79
2023-03-20T18:55:14.882Z,12.89
2023-03-20T18:57:43.160Z,12.84
2023-03-20T19:00:16.906Z,12.85
2023-03-20T19:02:43.339Z,12.83
2023-03-20T19:05:11.407Z,12.67
2023-03-20T19:07:37.858Z,12.55
2023-03-20T19:10:04.797Z,12.45
2023-03-20T19:12:31.585Z,12.37
2023-03-20T19:14:57.991Z,12.44
2023-03-20T19:17:24.473Z,12.54
2023-03-20T19:19:50.900Z,12.59
2023-03-20T19:22:28.968Z,12.52
2023-03-20T19:24:56.142Z,12.58
2023-03-20T19:27:22.595Z,12.52
2023-03-20T19:29:49.471Z,12.65
2023-03-20T19:32:15.897Z,12.56
2023-03-20T19:37:28.846Z,12.98
2023-03-20T19:39:55.307Z,12.56
2023-03-20T19:42:50.773Z,12.48
2023-03-20T19:45:08.670Z,12.63
2023-03-20T19:47:35.132Z,12.58
2023-03-20T19:50:01.749Z,12.48
2023-03-20T19:52:31.745Z,12.42
2023-03-20T19:55:02.982Z,12.30
2023-03-20T19:57:30.246Z,12.23
2023-03-20T20:00:32.253Z,12.22
2023-03-20T20:02:43.352Z,12.14
2023-03-20T20:05:22.140Z,12.09
2023-03-20T20:08:16.988Z,12.22
2023-03-20T20:10:40.192Z,12.13
2023-03-20T20:13:06.815Z,12.05
2023-03-20T20:15:34.750Z,11.90
2023-03-20T20:18:01.341Z,11.85
2023-03-20T20:20:29.896Z,11.68
2023-03-20T20:22:56.445Z,11.62
2023-03-20T20:25:23.058Z,11.57
2023-03-20T20:27:49.557Z,11.48
2023-03-20T20:30:17.403Z,11.39
2023-03-20T20:32:44.720Z,11.23
2023-03-20T20:38:33.567Z,11.03
2023-03-20T20:40:47.721Z,10.98
2023-03-20T20:43:39.079Z,10.98
2023-03-20T20:46:01.164Z,10.74
2023-03-20T20:48:27.657Z,10.60
2023-03-20T20:50:58.907Z,10.47
2023-03-20T20:53:25.975Z,10.37
2023-03-20T20:55:52.412Z,10.36
2023-03-20T20:58:18.848Z,10.27
2023-03-20T21:00:52.562Z,10.21
2023-03-20T21:03:21.286Z,10.18
2023-03-20T21:05:47.805Z,10.08
2023-03-20T21:08:15.189Z,9.99
2023-03-20T21:10:43.973Z,9.97
2023-03-20T21:13:10.557Z,9.98
2023-03-20T21:15:37.437Z,9.92
2023-03-20T21:18:04.195Z,9.90
2023-03-20T21:20:31.298Z,9.76
2023-03-20T21:22:58.250Z,9.73
2023-03-20T21:25:38.657Z,9.57
2023-03-20T21:28:06.680Z,9.60
2023-03-20T21:30:33.639Z,9.54
2023-03-20T21:33:00.289Z,9.51
2023-03-20T21:35:27.193Z,9.34
2023-03-20T21:40:40.248Z,9.28
2023-03-20T21:43:07.297Z,9.30
2023-03-20T22:02:22.513Z,8.92
2023-03-20T22:14:12.696Z,8.73
2023-03-20T22:27:49.301Z,8.70
2023-03-20T22:33:22.713Z,8.53
2023-03-20T22:41:57.112Z,8.52
2023-03-20T22:46:47.975Z,8.37
2023-03-20T22:49:14.737Z,8.33
2023-03-20T22:51:57.502Z,8.19
2023-03-20T22:54:27.625Z,7.99
2023-03-20T22:56:54.114Z,7.95
2023-03-20T22:59:20.569Z,7.82
2023-03-20T23:01:46.982Z,7.89
2023-03-20T23:04:13.655Z,8.69
2023-03-20T23:06:40.975Z,8.14
2023-03-20T23:09:15.296Z,7.87
2023-03-20T23:11:42.180Z,7.95
2023-03-20T23:14:18.210Z,8.00
2023-03-20T23:16:46.591Z,7.99
2023-03-20T23:19:13.164Z,7.88
2023-03-20T23:21:39.597Z,7.86
2023-03-20T23:24:06.204Z,7.75
2023-03-20T23:26:32.665Z,7.69
2023-03-20T23:28:59.353Z,7.68
2023-03-20T23:31:26.561Z,7.62
2023-03-20T23:33:54.829Z,7.62
2023-03-20T23:36:34.989Z,7.75
2023-03-20T23:39:02.692Z,7.78
2023-03-20T23:41:54.034Z,7.78
2023-03-20T23:44:15.787Z,7.79
2023-03-20T23:46:42.367Z,7.79
2023-03-20T23:49:08.865Z,7.81
2023-03-20T23:51:35.415Z,7.84
2023-03-20T23:54:01.893Z,7.82
2023-03-20T23:56:28.539Z,7.75
2023-03-20T23:59:01.168Z,7.92
